sensor_id;sensor_type;location;lat;lon;timestamp;P1;durP1;ratioP1;P2;durP2;ratioP2
826;SDS011;395;48.132;11.608;2022-09-24T00:00:27;6.83;;;5.73;;
826;SDS011;395;48.132;11.608;2022-09-24T00:02:53;6.80;;;6.13;;
826;SDS011;395;48.132;11.608;2022-09-24T00:05:18;6.90;;;6.20;;
826;SDS011;395;48.132;11.608;2022-09-24T00:07:44;6.20;;;5.70;;
826;SDS011;395;48.132;11.608;2022-09-24T00:10:09;6.80;;;6.03;;
826;SDS011;395;48.132;11.608;2022-09-24T00:12:36;7.47;;;6.00;;
826;SDS011;395;48.132;11.608;2022-09-24T00:15:02;7.07;;;6.37;;
826;SDS011;395;48.132;11.608;2022-09-24T00:17:28;6.90;;;6.20;;
826;SDS011;395;48.132;11.608;2022-09-24T00:19:54;7.00;;;6.33;;
826;SDS011;395;48.132;11.608;2022-09-24T00:22:19;6.93;;;5.87;;
826;SDS011;395;48.132;11.608;2022-09-24T00:24:45;5.70;;;5.20;;
826;SDS011;395;48.132;11.608;2022-09-24T00:27:29;6.23;;;5.73;;
826;SDS011;395;48.132;11.608;2022-09-24T00:29:55;6.37;;;5.37;;
826;SDS011;395;48.132;11.608;2022-09-24T00:32:20;6.13;;;5.60;;
826;SDS011;395;48.132;11.608;2022-09-24T00:34:48;8.30;;;6.17;;
826;SDS011;395;48.132;11.608;2022-09-24T00:37:16;6.50;;;5.07;;
826;SDS011;395;48.132;11.608;2022-09-24T00:39:43;6.10;;;5.50;;
826;SDS011;395;48.132;11.608;2022-09-24T00:42:10;6.40;;;5.57;;
826;SDS011;395;48.132;11.608;2022-09-24T00:44:42;6.20;;;5.43;;
826;SDS011;395;48.132;11.608;2022-09-24T00:47:14;7.13;;;6.10;;
826;SDS011;395;48.132;11.608;2022-09-24T00:49:59;7.23;;;6.53;;
826;SDS011;395;48.132;11.608;2022-09-24T00:52:30;6.97;;;6.27;;
826;SDS011;395;48.132;11.608;2022-09-24T00:54:57;6.20;;;5.63;;
826;SDS011;395;48.132;11.608;2022-09-24T00:57:24;6.47;;;5.73;;
826;SDS011;395;48.132;11.608;2022-09-24T00:59:51;6.07;;;5.50;;
826;SDS011;395;48.132;11.608;2022-09-24T01:02:18;6.23;;;5.57;;
826;SDS011;395;48.132;11.608;2022-09-24T01:04:44;6.10;;;5.50;;
826;SDS011;395;48.132;11.608;2022-09-24T01:07:11;6.57;;;5.40;;
826;SDS011;395;48.132;11.608;2022-09-24T01:09:36;6.37;;;5.33;;
826;SDS011;395;48.132;11.608;2022-09-24T01:12:13;6.40;;;5.80;;
826;SDS011;395;48.132;11.608;2022-09-24T01:23:02;6.10;;;5.50;;
826;SDS011;395;48.132;11.608;2022-09-24T01:31:35;4.97;;;4.57;;
826;SDS011;395;48.132;11.608;2022-09-24T01:34:10;4.70;;;4.30;;
826;SDS011;395;48.132;11.608;2022-09-24T01:36:41;4.90;;;4.50;;
826;SDS011;395;48.132;11.608;2022-09-24T01:39:09;5.70;;;4.97;;
826;SDS011;395;48.132;11.608;2022-09-24T01:41:36;5.93;;;5.43;;
826;SDS011;395;48.132;11.608;2022-09-24T01:44:03;5.50;;;5.00;;
826;SDS011;395;48.132;11.608;2022-09-24T01:46:31;4.97;;;4.57;;
826;SDS011;395;48.132;11.608;2022-09-24T01:48:58;5.50;;;5.00;;
826;SDS011;395;48.132;11.608;2022-09-24T01:51:34;6.10;;;5.40;;
826;SDS011;395;48.132;11.608;2022-09-24T01:54:07;6.00;;;5.50;;
826;SDS011;395;48.132;11.608;2022-09-24T01:56:56;6.57;;;5.93;;
826;SDS011;395;48.132;11.608;2022-09-24T01:59:37;6.17;;;5.53;;
826;SDS011;395;48.132;11.608;2022-09-24T02:04:55;6.27;;;5.67;;
826;SDS011;395;48.132;11.608;2022-09-24T02:07:34;9.03;;;5.93;;
826;SDS011;395;48.132;11.608;2022-09-24T02:10:09;6.33;;;5.83;;
826;SDS011;395;48.132;11.608;2022-09-24T02:12:41;5.83;;;5.23;;
826;SDS011;395;48.132;11.608;2022-09-24T02:15:12;6.33;;;5.20;;
826;SDS011;395;48.132;11.608;2022-09-24T02:17:42;5.27;;;4.77;;
826;SDS011;395;48.132;11.608;2022-09-24T02:20:14;4.90;;;4.47;;
826;SDS011;395;48.132;11.608;2022-09-24T02:22:44;5.07;;;4.67;;
826;SDS011;395;48.132;11.608;2022-09-24T02:25:12;4.60;;;4.20;;
826;SDS011;395;48.132;11.608;2022-09-24T02:27:41;4.97;;;4.50;;
826;SDS011;395;48.132;11.608;2022-09-24T02:30:07;5.60;;;4.50;;
826;SDS011;395;48.132;11.608;2022-09-24T02:32:34;6.00;;;4.30;;
826;SDS011;395;48.132;11.608;2022-09-24T02:35:04;5.50;;;5.00;;
826;SDS011;395;48.132;11.608;2022-09-24T02:37:35;5.00;;;4.50;;
826;SDS011;395;48.132;11.608;2022-09-24T02:40:03;4.93;;;4.50;;
826;SDS011;395;48.132;11.608;2022-09-24T02:42:30;4.97;;;4.53;;
826;SDS011;395;48.132;11.608;2022-09-24T02:44:56;4.63;;;4.23;;
826;SDS011;395;48.132;11.608;2022-09-24T02:47:25;4.47;;;4.07;;
826;SDS011;395;48.132;11.608;2022-09-24T02:49:51;4.60;;;4.10;;
826;SDS011;395;48.132;11.608;2022-09-24T02:52:17;5.10;;;4.60;;
826;SDS011;395;48.132;11.608;2022-09-24T02:54:46;4.80;;;4.30;;
826;SDS011;395;48.132;11.608;2022-09-24T02:57:12;4.40;;;4.00;;
826;SDS011;395;48.132;11.608;2022-09-24T02:59:38;4.20;;;3.90;;
826;SDS011;395;48.132;11.608;2022-09-24T03:02:04;5.27;;;4.63;;
826;SDS011;395;48.132;11.608;2022-09-24T03:04:29;4.93;;;4.53;;
826;SDS011;395;48.132;11.608;2022-09-24T03:06:55;4.30;;;4.00;;
826;SDS011;395;48.132;11.608;2022-09-24T03:09:21;4.97;;;4.50;;
826;SDS011;395;48.132;11.608;2022-09-24T03:11:47;9.07;;;4.87;;
826;SDS011;395;48.132;11.608;2022-09-24T03:14:13;5.07;;;4.53;;
826;SDS011;395;48.132;11.608;2022-09-24T03:16:38;5.43;;;4.17;;
826;SDS011;395;48.132;11.608;2022-09-24T03:19:05;4.93;;;4.30;;
826;SDS011;395;48.132;11.608;2022-09-24T03:21:30;4.60;;;4.20;;
826;SDS011;395;48.132;11.608;2022-09-24T03:23:56;4.90;;;4.43;;
826;SDS011;395;48.132;11.608;2022-09-24T03:26:22;4.47;;;4.07;;
826;SDS011;395;48.132;11.608;2022-09-24T03:28:47;5.30;;;4.80;;
826;SDS011;395;48.132;11.608;2022-09-24T03:31:13;4.97;;;4.37;;
826;SDS011;395;48.132;11.608;2022-09-24T03:33:40;4.70;;;4.30;;
826;SDS011;395;48.132;11.608;2022-09-24T03:36:11;5.17;;;4.70;;
826;SDS011;395;48.132;11.608;2022-09-24T03:38:42;3.67;;;3.37;;
826;SDS011;395;48.132;11.608;2022-09-24T03:41:08;4.70;;;4.30;;
826;SDS011;395;48.132;11.608;2022-09-24T03:43:35;5.40;;;4.90;;
826;SDS011;395;48.132;11.608;2022-09-24T03:46:01;4.10;;;3.80;;
826;SDS011;395;48.132;11.608;2022-09-24T03:48:27;4.50;;;3.73;;
826;SDS011;395;48.132;11.608;2022-09-24T03:50:54;4.50;;;4.10;;
826;SDS011;395;48.132;11.608;2022-09-24T03:53:20;4.47;;;4.07;;
826;SDS011;395;48.132;11.608;2022-09-24T03:55:55;5.80;;;4.10;;
826;SDS011;395;48.132;11.608;2022-09-24T03:58:21;4.73;;;4.30;;
826;SDS011;395;48.132;11.608;2022-09-24T04:00:49;5.10;;;4.60;;
826;SDS011;395;48.132;11.608;2022-09-24T04:03:16;4.40;;;4.00;;
826;SDS011;395;48.132;11.608;2022-09-24T04:05:42;4.70;;;4.10;;
826;SDS011;395;48.132;11.608;2022-09-24T04:08:08;6.70;;;4.27;;
826;SDS011;395;48.132;11.608;2022-09-24T04:10:33;6.90;;;4.23;;
826;SDS011;395;48.132;11.608;2022-09-24T04:12:59;4.53;;;4.13;;
826;SDS011;395;48.132;11.608;2022-09-24T04:15:25;4.17;;;3.87;;
826;SDS011;395;48.132;11.608;2022-09-24T04:17:52;4.77;;;4.07;;
826;SDS011;395;48.132;11.608;2022-09-24T04:20:19;4.87;;;4.47;;
826;SDS011;395;48.132;11.608;2022-09-24T04:22:47;5.07;;;4.53;;
826;SDS011;395;48.132;11.608;2022-09-24T04:25:13;6.00;;;4.73;;
826;SDS011;395;48.132;11.608;2022-09-24T04:27:39;4.63;;;4.00;;
826;SDS011;395;48.132;11.608;2022-09-24T04:30:06;4.87;;;4.47;;
826;SDS011;395;48.132;11.608;2022-09-24T04:32:32;5.07;;;4.60;;
826;SDS011;395;48.132;11.608;2022-09-24T04:34:58;3.90;;;3.60;;
826;SDS011;395;48.132;11.608;2022-09-24T04:37:24;4.23;;;3.83;;
826;SDS011;395;48.132;11.608;2022-09-24T04:39:49;4.63;;;4.00;;
826;SDS011;395;48.132;11.608;2022-09-24T04:42:16;4.10;;;3.70;;
826;SDS011;395;48.132;11.608;2022-09-24T04:44:42;4.63;;;4.20;;
826;SDS011;395;48.132;11.608;2022-09-24T04:47:11;4.40;;;4.00;;
826;SDS011;395;48.132;11.608;2022-09-24T04:49:38;4.87;;;4.00;;
826;SDS011;395;48.132;11.608;2022-09-24T04:52:04;4.73;;;4.40;;
826;SDS011;395;48.132;11.608;2022-09-24T04:54:30;4.10;;;3.73;;
826;SDS011;395;48.132;11.608;2022-09-24T04:56:56;7.53;;;4.17;;
826;SDS011;395;48.132;11.608;2022-09-24T04:59:21;4.10;;;3.70;;
826;SDS011;395;48.132;11.608;2022-09-24T05:01:47;4.63;;;4.23;;
826;SDS011;395;48.132;11.608;2022-09-24T05:04:13;4.73;;;4.23;;
826;SDS011;395;48.132;11.608;2022-09-24T05:06:39;5.23;;;4.50;;
826;SDS011;395;48.132;11.608;2022-09-24T05:09:05;7.20;;;5.00;;
826;SDS011;395;48.132;11.608;2022-09-24T05:11:31;6.53;;;5.23;;
826;SDS011;395;48.132;11.608;2022-09-24T05:13:57;7.43;;;4.43;;
826;SDS011;395;48.132;11.608;2022-09-24T05:16:22;4.63;;;3.77;;
826;SDS011;395;48.132;11.608;2022-09-24T05:18:48;4.80;;;4.40;;
826;SDS011;395;48.132;11.608;2022-09-24T05:21:13;5.00;;;4.07;;
826;SDS011;395;48.132;11.608;2022-09-24T05:23:39;4.57;;;4.17;;
826;SDS011;395;48.132;11.608;2022-09-24T05:26:05;4.57;;;4.13;;
826;SDS011;395;48.132;11.608;2022-09-24T05:28:49;3.83;;;3.53;;
826;SDS011;395;48.132;11.608;2022-09-24T05:31:16;4.47;;;3.80;;
826;SDS011;395;48.132;11.608;2022-09-24T05:33:42;8.00;;;4.47;;
826;SDS011;395;48.132;11.608;2022-09-24T05:36:08;4.93;;;4.53;;
826;SDS011;395;48.132;11.608;2022-09-24T05:38:37;4.43;;;4.03;;
826;SDS011;395;48.132;11.608;2022-09-24T05:41:02;4.70;;;3.87;;
826;SDS011;395;48.132;11.608;2022-09-24T05:43:28;8.13;;;5.90;;
826;SDS011;395;48.132;11.608;2022-09-24T05:45:55;6.30;;;4.97;;
826;SDS011;395;48.132;11.608;2022-09-24T05:48:23;6.53;;;5.93;;
826;SDS011;395;48.132;11.608;2022-09-24T05:50:50;5.80;;;5.20;;
826;SDS011;395;48.132;11.608;2022-09-24T05:53:19;7.00;;;4.50;;
826;SDS011;395;48.132;11.608;2022-09-24T05:55:45;7.70;;;4.40;;
826;SDS011;395;48.132;11.608;2022-09-24T05:58:11;5.30;;;4.90;;
826;SDS011;395;48.132;11.608;2022-09-24T06:00:38;4.47;;;4.07;;
826;SDS011;395;48.132;11.608;2022-09-24T06:03:05;5.83;;;4.13;;
826;SDS011;395;48.132;11.608;2022-09-24T06:05:34;6.03;;;4.60;;
826;SDS011;395;48.132;11.608;2022-09-24T06:08:03;5.90;;;4.77;;
826;SDS011;395;48.132;11.608;2022-09-24T06:10:30;5.60;;;4.10;;
826;SDS011;395;48.132;11.608;2022-09-24T06:12:56;8.53;;;5.80;;
826;SDS011;395;48.132;11.608;2022-09-24T06:15:22;5.87;;;5.37;;
826;SDS011;395;48.132;11.608;2022-09-24T06:17:54;5.67;;;5.17;;
826;SDS011;395;48.132;11.608;2022-09-24T06:20:20;5.50;;;4.50;;
826;SDS011;395;48.132;11.608;2022-09-24T06:22:47;5.70;;;4.90;;
826;SDS011;395;48.132;11.608;2022-09-24T06:25:12;5.17;;;4.33;;
826;SDS011;395;48.132;11.608;2022-09-24T06:27:38;6.23;;;3.90;;
826;SDS011;395;48.132;11.608;2022-09-24T06:30:04;5.37;;;4.80;;
826;SDS011;395;48.132;11.608;2022-09-24T06:32:30;4.80;;;3.50;;
826;SDS011;395;48.132;11.608;2022-09-24T06:34:56;5.00;;;4.50;;
826;SDS011;395;48.132;11.608;2022-09-24T06:37:21;5.53;;;4.33;;
826;SDS011;395;48.132;11.608;2022-09-24T06:39:47;5.40;;;4.00;;
826;SDS011;395;48.132;11.608;2022-09-24T06:42:13;6.33;;;4.40;;
826;SDS011;395;48.132;11.608;2022-09-24T06:44:38;6.20;;;4.10;;
826;SDS011;395;48.132;11.608;2022-09-24T06:47:04;4.50;;;4.20;;
826;SDS011;395;48.132;11.608;2022-09-24T06:49:30;4.97;;;4.47;;
826;SDS011;395;48.132;11.608;2022-09-24T06:51:55;5.63;;;4.53;;
826;SDS011;395;48.132;11.608;2022-09-24T06:54:22;4.80;;;4.40;;
826;SDS011;395;48.132;11.608;2022-09-24T06:56:48;4.37;;;4.07;;
826;SDS011;395;48.132;11.608;2022-09-24T06:59:15;5.30;;;4.07;;
826;SDS011;395;48.132;11.608;2022-09-24T07:01:40;5.30;;;4.20;;
826;SDS011;395;48.132;11.608;2022-09-24T07:04:06;4.93;;;4.40;;
826;SDS011;395;48.132;11.608;2022-09-24T07:06:33;4.97;;;4.40;;
826;SDS011;395;48.132;11.608;2022-09-24T07:09:17;3.93;;;3.47;;
826;SDS011;395;48.132;11.608;2022-09-24T07:11:43;6.57;;;4.53;;
826;SDS011;395;48.132;11.608;2022-09-24T07:14:11;6.40;;;4.90;;
826;SDS011;395;48.132;11.608;2022-09-24T07:16:37;4.60;;;4.20;;
826;SDS011;395;48.132;11.608;2022-09-24T07:19:03;6.03;;;5.20;;
826;SDS011;395;48.132;11.608;2022-09-24T07:21:28;4.20;;;3.80;;
826;SDS011;395;48.132;11.608;2022-09-24T07:23:54;4.70;;;4.30;;
826;SDS011;395;48.132;11.608;2022-09-24T07:26:19;7.20;;;4.30;;
826;SDS011;395;48.132;11.608;2022-09-24T07:28:45;6.03;;;4.00;;
826;SDS011;395;48.132;11.608;2022-09-24T07:31:11;5.40;;;4.90;;
826;SDS011;395;48.132;11.608;2022-09-24T07:33:36;4.83;;;4.17;;
826;SDS011;395;48.132;11.608;2022-09-24T07:36:02;3.67;;;3.37;;
826;SDS011;395;48.132;11.608;2022-09-24T07:38:31;6.00;;;4.80;;
826;SDS011;395;48.132;11.608;2022-09-24T07:40:57;4.20;;;3.87;;
826;SDS011;395;48.132;11.608;2022-09-24T07:43:23;5.90;;;4.33;;
826;SDS011;395;48.132;11.608;2022-09-24T07:45:48;4.20;;;3.80;;
826;SDS011;395;48.132;11.608;2022-09-24T07:48:14;4.80;;;4.40;;
826;SDS011;395;48.132;11.608;2022-09-24T07:50:41;4.50;;;4.10;;
826;SDS011;395;48.132;11.608;2022-09-24T07:53:08;4.47;;;4.07;;
826;SDS011;395;48.132;11.608;2022-09-24T07:55:36;5.03;;;3.97;;
826;SDS011;395;48.132;11.608;2022-09-24T07:58:04;4.53;;;4.10;;
826;SDS011;395;48.132;11.608;2022-09-24T08:00:32;5.40;;;4.13;;
826;SDS011;395;48.132;11.608;2022-09-24T08:02:58;5.13;;;3.90;;
826;SDS011;395;48.132;11.608;2022-09-24T08:05:26;5.47;;;4.50;;
826;SDS011;395;48.132;11.608;2022-09-24T08:07:52;4.70;;;4.30;;
826;SDS011;395;48.132;11.608;2022-09-24T08:10:19;8.00;;;4.67;;
826;SDS011;395;48.132;11.608;2022-09-24T08:12:45;5.80;;;4.90;;
826;SDS011;395;48.132;11.608;2022-09-24T08:15:11;5.30;;;4.70;;
826;SDS011;395;48.132;11.608;2022-09-24T08:17:36;5.33;;;4.57;;
826;SDS011;395;48.132;11.608;2022-09-24T08:20:03;7.27;;;4.87;;
826;SDS011;395;48.132;11.608;2022-09-24T08:22:29;6.37;;;5.00;;
826;SDS011;395;48.132;11.608;2022-09-24T08:24:55;5.50;;;5.00;;
826;SDS011;395;48.132;11.608;2022-09-24T08:27:22;4.30;;;3.90;;
826;SDS011;395;48.132;11.608;2022-09-24T08:29:49;5.00;;;4.10;;
826;SDS011;395;48.132;11.608;2022-09-24T08:32:16;6.90;;;5.37;;
826;SDS011;395;48.132;11.608;2022-09-24T08:34:42;5.40;;;4.63;;
826;SDS011;395;48.132;11.608;2022-09-24T08:37:09;5.67;;;5.20;;
826;SDS011;395;48.132;11.608;2022-09-24T08:39:36;4.67;;;4.27;;
826;SDS011;395;48.132;11.608;2022-09-24T08:42:03;4.63;;;4.23;;
826;SDS011;395;48.132;11.608;2022-09-24T08:44:30;6.50;;;3.87;;
826;SDS011;395;48.132;11.608;2022-09-24T08:47:24;5.13;;;4.63;;
826;SDS011;395;48.132;11.608;2022-09-24T08:50:01;5.50;;;5.00;;
826;SDS011;395;48.132;11.608;2022-09-24T08:52:29;5.20;;;4.30;;
826;SDS011;395;48.132;11.608;2022-09-24T08:55:04;5.03;;;4.50;;
826;SDS011;395;48.132;11.608;2022-09-24T08:57:45;5.33;;;4.00;;
826;SDS011;395;48.132;11.608;2022-09-24T09:00:23;5.13;;;4.73;;
826;SDS011;395;48.132;11.608;2022-09-24T09:03:05;4.80;;;4.40;;
826;SDS011;395;48.132;11.608;2022-09-24T09:05:48;6.17;;;5.50;;
826;SDS011;395;48.132;11.608;2022-09-24T09:11:03;5.87;;;5.37;;
826;SDS011;395;48.132;11.608;2022-09-24T09:13:38;5.67;;;5.10;;
826;SDS011;395;48.132;11.608;2022-09-24T09:16:28;5.20;;;4.80;;
826;SDS011;395;48.132;11.608;2022-09-24T09:19:04;7.10;;;4.97;;
826;SDS011;395;48.132;11.608;2022-09-24T09:21:39;5.70;;;4.90;;
826;SDS011;395;48.132;11.608;2022-09-24T09:24:18;7.10;;;6.37;;
826;SDS011;395;48.132;11.608;2022-09-24T09:26:48;6.90;;;6.30;;
826;SDS011;395;48.132;11.608;2022-09-24T09:29:18;7.00;;;6.40;;
826;SDS011;395;48.132;11.608;2022-09-24T09:40:44;6.20;;;5.60;;
826;SDS011;395;48.132;11.608;2022-09-24T09:43:16;5.17;;;4.67;;
826;SDS011;395;48.132;11.608;2022-09-24T09:48:36;5.20;;;4.67;;
826;SDS011;395;48.132;11.608;2022-09-24T09:51:12;5.90;;;4.53;;
826;SDS011;395;48.132;11.608;2022-09-24T09:53:59;4.30;;;3.90;;
826;SDS011;395;48.132;11.608;2022-09-24T09:56:27;5.03;;;4.50;;
826;SDS011;395;48.132;11.608;2022-09-24T09:59:15;4.00;;;3.70;;
826;SDS011;395;48.132;11.608;2022-09-24T10:01:42;4.20;;;3.90;;
826;SDS011;395;48.132;11.608;2022-09-24T10:07:08;4.53;;;4.10;;
826;SDS011;395;48.132;11.608;2022-09-24T10:09:36;3.87;;;3.50;;
826;SDS011;395;48.132;11.608;2022-09-24T10:12:06;3.90;;;3.60;;
826;SDS011;395;48.132;11.608;2022-09-24T10:14:33;5.23;;;4.73;;
826;SDS011;395;48.132;11.608;2022-09-24T10:16:59;4.90;;;4.50;;
826;SDS011;395;48.132;11.608;2022-09-24T10:19:30;4.77;;;3.93;;
826;SDS011;395;48.132;11.608;2022-09-24T10:22:14;6.27;;;4.80;;
826;SDS011;395;48.132;11.608;2022-09-24T10:24:45;4.93;;;4.53;;
826;SDS011;395;48.132;11.608;2022-09-24T10:27:12;6.20;;;4.70;;
826;SDS011;395;48.132;11.608;2022-09-24T10:29:43;5.83;;;5.23;;
826;SDS011;395;48.132;11.608;2022-09-24T10:32:28;5.50;;;5.10;;
826;SDS011;395;48.132;11.608;2022-09-24T10:34:58;7.40;;;4.30;;
826;SDS011;395;48.132;11.608;2022-09-24T10:37:25;5.00;;;4.60;;
826;SDS011;395;48.132;11.608;2022-09-24T10:40:11;5.93;;;5.43;;
826;SDS011;395;48.132;11.608;2022-09-24T10:42:39;5.57;;;5.00;;
826;SDS011;395;48.132;11.608;2022-09-24T10:45:05;5.80;;;5.30;;
826;SDS011;395;48.132;11.608;2022-09-24T10:47:43;6.60;;;6.00;;
826;SDS011;395;48.132;11.608;2022-09-24T10:53:02;6.33;;;5.80;;
826;SDS011;395;48.132;11.608;2022-09-24T11:01:32;5.77;;;5.23;;
826;SDS011;395;48.132;11.608;2022-09-24T11:09:26;5.60;;;5.20;;
826;SDS011;395;48.132;11.608;2022-09-24T11:15:31;6.17;;;5.67;;
826;SDS011;395;48.132;11.608;2022-09-24T11:23:45;7.10;;;5.90;;
826;SDS011;395;48.132;11.608;2022-09-24T11:34:35;7.03;;;6.43;;
826;SDS011;395;48.132;11.608;2022-09-24T11:45:24;6.20;;;5.60;;
826;SDS011;395;48.132;11.608;2022-09-24T11:50:41;6.60;;;6.00;;
826;SDS011;395;48.132;11.608;2022-09-24T11:53:13;6.43;;;5.83;;
826;SDS011;395;48.132;11.608;2022-09-24T11:55:58;7.40;;;6.80;;
826;SDS011;395;48.132;11.608;2022-09-24T11:58:45;8.63;;;6.97;;
826;SDS011;395;48.132;11.608;2022-09-24T12:01:36;7.57;;;6.87;;
826;SDS011;395;48.132;11.608;2022-09-24T12:04:07;7.70;;;7.00;;
826;SDS011;395;48.132;11.608;2022-09-24T12:06:47;7.40;;;6.70;;
826;SDS011;395;48.132;11.608;2022-09-24T12:11:57;9.80;;;6.40;;
826;SDS011;395;48.132;11.608;2022-09-24T12:17:17;7.60;;;6.90;;
826;SDS011;395;48.132;11.608;2022-09-24T12:19:59;7.93;;;7.20;;
826;SDS011;395;48.132;11.608;2022-09-24T12:22:31;6.80;;;6.20;;
826;SDS011;395;48.132;11.608;2022-09-24T12:25:02;7.77;;;7.07;;
826;SDS011;395;48.132;11.608;2022-09-24T12:27:33;11.77;;;6.53;;
826;SDS011;395;48.132;11.608;2022-09-24T12:36:19;8.00;;;7.30;;
826;SDS011;395;48.132;11.608;2022-09-24T12:39:14;7.23;;;6.60;;
826;SDS011;395;48.132;11.608;2022-09-24T12:41:46;7.70;;;7.00;;
826;SDS011;395;48.132;11.608;2022-09-24T12:44:21;8.13;;;7.27;;
826;SDS011;395;48.132;11.608;2022-09-24T12:47:10;7.53;;;6.83;;
826;SDS011;395;48.132;11.608;2022-09-24T12:49:40;7.53;;;6.70;;
826;SDS011;395;48.132;11.608;2022-09-24T12:52:15;7.60;;;6.90;;
826;SDS011;395;48.132;11.608;2022-09-24T12:55:33;7.80;;;7.00;;
826;SDS011;395;48.132;11.608;2022-09-24T12:58:06;7.30;;;6.60;;
826;SDS011;395;48.132;11.608;2022-09-24T13:00:48;8.00;;;7.20;;
826;SDS011;395;48.132;11.608;2022-09-24T13:05:57;8.80;;;7.50;;
826;SDS011;395;48.132;11.608;2022-09-24T13:08:25;10.47;;;7.67;;
826;SDS011;395;48.132;11.608;2022-09-24T13:10:59;7.40;;;6.70;;
826;SDS011;395;48.132;11.608;2022-09-24T13:13:30;7.70;;;6.90;;
826;SDS011;395;48.132;11.608;2022-09-24T13:16:03;8.73;;;6.93;;
826;SDS011;395;48.132;11.608;2022-09-24T13:18:34;7.40;;;6.60;;
826;SDS011;395;48.132;11.608;2022-09-24T13:21:05;6.80;;;6.20;;
826;SDS011;395;48.132;11.608;2022-09-24T13:23:42;6.67;;;6.07;;
826;SDS011;395;48.132;11.608;2022-09-24T13:26:52;7.37;;;6.30;;
826;SDS011;395;48.132;11.608;2022-09-24T13:28:59;6.80;;;6.20;;
826;SDS011;395;48.132;11.608;2022-09-24T13:31:43;7.43;;;6.03;;
826;SDS011;395;48.132;11.608;2022-09-24T13:34:24;7.03;;;6.40;;
826;SDS011;395;48.132;11.608;2022-09-24T13:39:26;6.00;;;5.40;;
826;SDS011;395;48.132;11.608;2022-09-24T13:42:20;7.33;;;6.63;;
826;SDS011;395;48.132;11.608;2022-09-24T13:44:58;5.37;;;4.87;;
826;SDS011;395;48.132;11.608;2022-09-24T13:47:28;5.40;;;4.90;;
826;SDS011;395;48.132;11.608;2022-09-24T13:52:56;7.33;;;6.00;;
826;SDS011;395;48.132;11.608;2022-09-24T13:55:46;5.53;;;4.97;;
826;SDS011;395;48.132;11.608;2022-09-24T13:58:36;5.63;;;5.10;;
826;SDS011;395;48.132;11.608;2022-09-24T14:01:04;6.30;;;5.80;;
826;SDS011;395;48.132;11.608;2022-09-24T14:03:41;6.87;;;6.17;;
826;SDS011;395;48.132;11.608;2022-09-24T14:06:17;5.10;;;4.70;;
826;SDS011;395;48.132;11.608;2022-09-24T14:08:47;5.67;;;5.17;;
826;SDS011;395;48.132;11.608;2022-09-24T14:11:14;5.90;;;5.40;;
826;SDS011;395;48.132;11.608;2022-09-24T14:13:48;6.20;;;5.70;;
826;SDS011;395;48.132;11.608;2022-09-24T14:16:19;6.70;;;6.10;;
826;SDS011;395;48.132;11.608;2022-09-24T14:18:46;10.53;;;6.63;;
826;SDS011;395;48.132;11.608;2022-09-24T14:21:15;7.80;;;7.10;;
826;SDS011;395;48.132;11.608;2022-09-24T14:26:24;11.30;;;6.10;;
826;SDS011;395;48.132;11.608;2022-09-24T14:28:54;6.60;;;5.60;;
826;SDS011;395;48.132;11.608;2022-09-24T14:31:22;6.20;;;5.70;;
826;SDS011;395;48.132;11.608;2022-09-24T14:33:48;5.53;;;5.10;;
826;SDS011;395;48.132;11.608;2022-09-24T14:36:14;6.90;;;6.30;;
826;SDS011;395;48.132;11.608;2022-09-24T14:39:00;6.23;;;5.73;;
826;SDS011;395;48.132;11.608;2022-09-24T14:41:28;5.60;;;5.10;;
826;SDS011;395;48.132;11.608;2022-09-24T14:44:00;6.40;;;5.90;;
826;SDS011;395;48.132;11.608;2022-09-24T14:46:31;6.07;;;5.47;;
826;SDS011;395;48.132;11.608;2022-09-24T14:51:49;6.10;;;5.50;;
826;SDS011;395;48.132;11.608;2022-09-24T14:57:07;5.50;;;5.00;;
826;SDS011;395;48.132;11.608;2022-09-24T14:59:47;6.50;;;5.90;;
826;SDS011;395;48.132;11.608;2022-09-24T15:04:44;6.23;;;5.70;;
826;SDS011;395;48.132;11.608;2022-09-24T15:07:16;7.33;;;5.13;;
826;SDS011;395;48.132;11.608;2022-09-24T15:09:49;6.07;;;5.57;;
826;SDS011;395;48.132;11.608;2022-09-24T15:12:18;6.93;;;6.30;;
826;SDS011;395;48.132;11.608;2022-09-24T15:14:53;6.43;;;5.93;;
826;SDS011;395;48.132;11.608;2022-09-24T15:17:21;6.93;;;6.23;;
826;SDS011;395;48.132;11.608;2022-09-24T15:19:48;6.27;;;5.70;;
826;SDS011;395;48.132;11.608;2022-09-24T15:22:18;7.53;;;6.83;;
826;SDS011;395;48.132;11.608;2022-09-24T15:24:47;7.30;;;6.23;;
826;SDS011;395;48.132;11.608;2022-09-24T15:29:50;8.10;;;7.37;;
826;SDS011;395;48.132;11.608;2022-09-24T15:32:18;8.60;;;7.80;;
826;SDS011;395;48.132;11.608;2022-09-24T15:34:45;8.70;;;7.87;;
826;SDS011;395;48.132;11.608;2022-09-24T15:37:11;7.23;;;6.63;;
826;SDS011;395;48.132;11.608;2022-09-24T15:39:41;8.40;;;7.60;;
826;SDS011;395;48.132;11.608;2022-09-24T15:42:13;8.50;;;7.70;;
826;SDS011;395;48.132;11.608;2022-09-24T15:44:40;7.73;;;7.03;;
826;SDS011;395;48.132;11.608;2022-09-24T15:47:07;8.47;;;7.77;;
826;SDS011;395;48.132;11.608;2022-09-24T15:49:32;8.40;;;7.60;;
826;SDS011;395;48.132;11.608;2022-09-24T15:52:02;8.80;;;7.90;;
826;SDS011;395;48.132;11.608;2022-09-24T15:54:37;9.87;;;8.40;;
826;SDS011;395;48.132;11.608;2022-09-24T15:57:02;9.20;;;8.13;;
826;SDS011;395;48.132;11.608;2022-09-24T15:59:28;9.00;;;8.10;;
826;SDS011;395;48.132;11.608;2022-09-24T16:01:56;8.43;;;7.70;;
826;SDS011;395;48.132;11.608;2022-09-24T16:04:25;10.53;;;9.47;;
826;SDS011;395;48.132;11.608;2022-09-24T16:06:51;8.53;;;7.80;;
826;SDS011;395;48.132;11.608;2022-09-24T16:09:16;9.00;;;8.10;;
826;SDS011;395;48.132;11.608;2022-09-24T16:11:42;11.13;;;10.13;;
826;SDS011;395;48.132;11.608;2022-09-24T16:14:08;9.20;;;8.30;;
826;SDS011;395;48.132;11.608;2022-09-24T16:16:36;12.13;;;10.93;;
826;SDS011;395;48.132;11.608;2022-09-24T16:19:02;11.80;;;10.70;;
826;SDS011;395;48.132;11.608;2022-09-24T16:21:31;15.63;;;14.10;;
826;SDS011;395;48.132;11.608;2022-09-24T16:23:57;13.67;;;11.90;;
826;SDS011;395;48.132;11.608;2022-09-24T16:26:24;13.00;;;11.33;;
826;SDS011;395;48.132;11.608;2022-09-24T16:28:50;11.90;;;10.70;;
826;SDS011;395;48.132;11.608;2022-09-24T16:31:18;11.77;;;10.60;;
826;SDS011;395;48.132;11.608;2022-09-24T16:33:44;11.20;;;10.17;;
826;SDS011;395;48.132;11.608;2022-09-24T16:36:10;10.93;;;9.83;;
826;SDS011;395;48.132;11.608;2022-09-24T16:38:36;10.27;;;9.37;;
826;SDS011;395;48.132;11.608;2022-09-24T16:41:03;12.17;;;11.07;;
826;SDS011;395;48.132;11.608;2022-09-24T16:43:30;11.53;;;10.47;;
826;SDS011;395;48.132;11.608;2022-09-24T16:46:00;10.43;;;9.40;;
826;SDS011;395;48.132;11.608;2022-09-24T16:48:27;11.73;;;10.53;;
826;SDS011;395;48.132;11.608;2022-09-24T16:50:54;11.63;;;10.53;;
826;SDS011;395;48.132;11.608;2022-09-24T16:53:27;11.30;;;9.73;;
826;SDS011;395;48.132;11.608;2022-09-24T16:56:00;11.53;;;10.33;;
826;SDS011;395;48.132;11.608;2022-09-24T16:58:30;13.77;;;12.23;;
826;SDS011;395;48.132;11.608;2022-09-24T17:00:57;12.90;;;11.33;;
826;SDS011;395;48.132;11.608;2022-09-24T17:03:22;12.17;;;10.67;;
826;SDS011;395;48.132;11.608;2022-09-24T17:05:48;11.90;;;10.77;;
826;SDS011;395;48.132;11.608;2022-09-24T17:08:14;14.60;;;11.60;;
826;SDS011;395;48.132;11.608;2022-09-24T17:10:47;10.90;;;9.90;;
826;SDS011;395;48.132;11.608;2022-09-24T17:13:15;12.97;;;11.77;;
826;SDS011;395;48.132;11.608;2022-09-24T17:15:41;15.10;;;13.53;;
826;SDS011;395;48.132;11.608;2022-09-24T17:18:07;13.10;;;11.80;;
826;SDS011;395;48.132;11.608;2022-09-24T17:20:33;15.37;;;13.90;;
826;SDS011;395;48.132;11.608;2022-09-24T17:22:58;14.87;;;13.27;;
826;SDS011;395;48.132;11.608;2022-09-24T17:25:24;16.07;;;13.70;;
826;SDS011;395;48.132;11.608;2022-09-24T17:27:51;14.50;;;13.00;;
826;SDS011;395;48.132;11.608;2022-09-24T17:30:17;16.37;;;14.77;;
826;SDS011;395;48.132;11.608;2022-09-24T17:32:43;18.30;;;16.50;;